createdAt,value
2023-03-12T00:01:21.443Z,89.65
2023-03-12T00:03:49.066Z,89.89
2023-03-12T00:06:16.825Z,90.24
2023-03-12T00:08:43.300Z,90.38
2023-03-12T00:11:12.656Z,90.39
2023-03-12T00:13:40.241Z,89.48
2023-03-12T00:16:15.252Z,89.53
2023-03-12T00:18:43.327Z,89.80
2023-03-12T00:21:10.158Z,89.90
2023-03-12T00:23:37.709Z,89.65
2023-03-12T00:26:07.194Z,89.82
2023-03-12T00:28:35.000Z,89.53
2023-03-12T00:31:03.176Z,89.23
2023-03-12T00:33:30.744Z,89.29
2023-03-12T00:36:00.258Z,88.88
2023-03-12T00:38:26.775Z,88.93
2023-03-12T00:40:53.439Z,89.03
2023-03-12T00:43:20.359Z,89.26
2023-03-12T00:45:46.892Z,88.99
2023-03-12T00:48:13.375Z,88.57
2023-03-12T00:50:39.973Z,88.94
2023-03-12T00:53:06.562Z,88.64
2023-03-12T00:55:33.189Z,88.73
2023-03-12T00:57:59.749Z,88.66
2023-03-12T01:00:26.386Z,88.68
2023-03-12T01:02:53.671Z,88.78
2023-03-12T01:05:20.323Z,88.55
2023-03-12T01:07:47.430Z,88.70
2023-03-12T01:10:17.763Z,89.38
2023-03-12T01:12:45.696Z,89.06
2023-03-12T01:15:15.538Z,89.00
2023-03-12T01:17:42.189Z,89.11
2023-03-12T01:20:10.077Z,89.28
2023-03-12T01:22:37.527Z,89.10
2023-03-12T01:25:04.428Z,89.09
2023-03-12T01:27:31.347Z,89.50
2023-03-12T01:29:57.832Z,89.05
2023-03-12T01:32:25.380Z,89.56
2023-03-12T01:34:51.995Z,89.55
2023-03-12T01:37:18.563Z,89.31
2023-03-12T01:39:45.075Z,89.46
2023-03-12T01:42:11.585Z,89.63
2023-03-12T01:44:59.157Z,89.30
2023-03-12T01:47:27.422Z,88.99
2023-03-12T01:49:55.968Z,89.16
2023-03-12T01:52:27.052Z,89.27
2023-03-12T01:54:57.784Z,89.03
2023-03-12T01:57:34.409Z,89.25
2023-03-12T02:00:16.049Z,89.36
2023-03-12T02:02:44.876Z,89.66
2023-03-12T02:05:24.869Z,89.29
2023-03-12T02:07:51.398Z,89.26
2023-03-12T02:10:17.973Z,89.36
2023-03-12T02:12:44.694Z,89.60
2023-03-12T02:15:11.763Z,89.54
2023-03-12T02:17:40.374Z,89.65
2023-03-12T02:20:18.297Z,89.80
2023-03-12T02:22:54.579Z,89.99
2023-03-12T02:25:37.230Z,89.95
2023-03-12T02:28:08.835Z,90.08
2023-03-12T02:30:37.119Z,90.34
2023-03-12T02:33:07.052Z,90.93
2023-03-12T02:35:34.192Z,91.23
2023-03-12T02:38:00.856Z,91.21
2023-03-12T02:40:46.154Z,91.37
2023-03-12T02:43:21.691Z,91.55
2023-03-12T02:45:48.539Z,91.34
2023-03-12T02:48:15.274Z,91.80
2023-03-12T02:50:42.661Z,91.62
2023-03-12T02:53:09.104Z,91.68
2023-03-12T02:55:35.649Z,91.93
2023-03-12T02:58:02.346Z,91.85
2023-03-12T03:00:32.214Z,92.20
2023-03-12T03:03:00.273Z,91.82
2023-03-12T03:05:27.154Z,92.18
2023-03-12T03:07:53.692Z,92.36
2023-03-12T03:10:20.225Z,92.41
2023-03-12T03:12:46.842Z,91.79
2023-03-12T03:15:13.704Z,92.36
2023-03-12T03:17:40.383Z,92.62
2023-03-12T03:20:11.055Z,92.40
2023-03-12T03:22:39.169Z,92.51
2023-03-12T03:25:07.730Z,92.15
2023-03-12T03:27:34.259Z,92.40
2023-03-12T03:30:00.891Z,92.55
2023-03-12T03:32:27.606Z,92.57
2023-03-12T03:34:54.109Z,92.48
2023-03-12T03:37:20.981Z,92.41
2023-03-12T03:39:47.781Z,92.56
2023-03-12T03:42:14.387Z,92.32
2023-03-12T03:44:42.113Z,92.67
2023-03-12T03:47:08.613Z,92.21
2023-03-12T03:49:35.106Z,92.04
2023-03-12T03:52:01.747Z,92.39
2023-03-12T03:54:33.947Z,92.08
2023-03-12T03:57:00.802Z,91.88
2023-03-12T03:59:27.686Z,92.16
2023-03-12T04:01:54.428Z,92.06
2023-03-12T04:04:21.077Z,91.96
2023-03-12T04:06:52.014Z,91.85
2023-03-12T04:09:18.702Z,91.94
2023-03-12T04:11:45.499Z,91.76
2023-03-12T04:14:13.232Z,91.72
2023-03-12T04:16:43.403Z,92.00
2023-03-12T04:19:10.149Z,91.92
2023-03-12T04:21:39.467Z,91.84
2023-03-12T04:24:07.938Z,91.71
2023-03-12T04:26:35.134Z,92.52
2023-03-12T04:29:03.352Z,92.27
2023-03-12T04:31:30.140Z,92.28
2023-03-12T04:33:57.109Z,92.49
2023-03-12T04:36:24.849Z,92.46
2023-03-12T04:38:52.739Z,92.46
2023-03-12T04:41:23.825Z,92.67
2023-03-12T04:43:59.174Z,92.18
2023-03-12T04:46:26.597Z,92.51
2023-03-12T04:48:53.109Z,92.42
2023-03-12T04:51:19.571Z,92.77
2023-03-12T04:53:46.210Z,92.60
2023-03-12T04:56:14.831Z,92.40
2023-03-12T04:58:42.591Z,92.64
2023-03-12T05:01:21.846Z,93.17
2023-03-12T05:03:48.392Z,93.10
2023-03-12T05:06:15.137Z,93.09
2023-03-12T05:08:41.608Z,93.29
2023-03-12T05:11:08.143Z,93.43
2023-03-12T05:13:34.831Z,93.52
2023-03-12T05:16:01.465Z,93.79
2023-03-12T05:18:28.246Z,93.72
2023-03-12T05:21:07.510Z,94.04
2023-03-12T05:23:35.640Z,93.50
2023-03-12T05:26:02.523Z,93.55
2023-03-12T05:28:29.489Z,93.16
2023-03-12T05:31:00.365Z,93.13
2023-03-12T05:33:28.587Z,93.05
2023-03-12T05:35:56.530Z,93.03
2023-03-12T05:38:23.434Z,93.24
2023-03-12T05:40:57.159Z,93.07
2023-03-12T05:43:23.811Z,93.34
2023-03-12T05:45:51.579Z,93.34
2023-03-12T05:48:21.447Z,92.72
2023-03-12T05:50:49.225Z,92.67
2023-03-12T05:53:15.814Z,92.73
2023-03-12T05:55:42.694Z,92.65
2023-03-12T05:58:10.082Z,92.83
2023-03-12T06:00:38.905Z,92.45
2023-03-12T06:03:07.893Z,92.86
2023-03-12T06:05:36.161Z,92.68
2023-03-12T06:08:04.144Z,92.50
2023-03-12T06:10:31.072Z,91.95
2023-03-12T06:12:58.271Z,92.23
2023-03-12T06:15:24.779Z,91.88
2023-03-12T06:17:51.396Z,91.92
2023-03-12T06:20:18.237Z,91.31
2023-03-12T06:22:44.728Z,91.20
2023-03-12T06:25:11.334Z,91.57
2023-03-12T06:27:38.668Z,91.21
2023-03-12T06:30:05.789Z,91.02
2023-03-12T06:32:32.435Z,90.77
2023-03-12T06:35:00.791Z,90.51
2023-03-12T06:37:28.166Z,90.08
2023-03-12T06:39:54.836Z,90.29
2023-03-12T06:42:22.556Z,90.32
2023-03-12T06:44:50.288Z,89.86
2023-03-12T06:47:17.764Z,89.73
2023-03-12T06:49:44.667Z,89.82
2023-03-12T06:52:11.215Z,89.29
2023-03-12T06:54:38.264Z,88.53
2023-03-12T06:57:04.957Z,88.20
2023-03-12T06:59:31.411Z,87.91
2023-03-12T07:01:58.429Z,87.03
2023-03-12T07:04:25.097Z,86.82
2023-03-12T07:06:51.585Z,86.40
2023-03-12T07:09:19.096Z,85.88
2023-03-12T07:11:46.147Z,85.56
2023-03-12T07:14:12.649Z,85.02
2023-03-12T07:16:39.271Z,84.61
2023-03-12T07:19:06.188Z,84.29
2023-03-12T07:21:32.765Z,83.50
2023-03-12T07:24:00.796Z,83.29
2023-03-12T07:26:27.489Z,82.75
2023-03-12T07:28:54.037Z,82.11
2023-03-12T07:31:20.702Z,81.60
2023-03-12T07:33:47.428Z,81.09
2023-03-12T07:36:14.246Z,80.39
2023-03-12T07:38:40.939Z,80.59
2023-03-12T07:41:07.493Z,80.12
2023-03-12T07:43:34.005Z,79.91
2023-03-12T07:46:00.667Z,79.72
2023-03-12T07:48:27.287Z,78.80
2023-03-12T07:50:53.812Z,78.23
2023-03-12T07:53:20.336Z,77.62
2023-03-12T07:55:48.297Z,77.89
2023-03-12T07:58:16.124Z,77.62
2023-03-12T08:00:42.872Z,77.05
2023-03-12T08:03:09.758Z,76.00
2023-03-12T08:05:36.552Z,75.94
2023-03-12T08:08:04.049Z,75.08
2023-03-12T08:10:30.981Z,77.07
2023-03-12T08:12:57.824Z,75.20
2023-03-12T08:15:24.565Z,74.55
2023-03-12T08:17:51.123Z,75.39
2023-03-12T08:20:17.737Z,73.96
2023-03-12T08:22:44.362Z,73.55
2023-03-12T08:25:11.518Z,72.43
2023-03-12T08:27:38.454Z,70.75
2023-03-12T08:30:06.449Z,70.19
2023-03-12T08:32:33.188Z,68.66
2023-03-12T08:34:59.934Z,69.05
2023-03-12T08:37:26.415Z,68.41
2023-03-12T08:39:52.851Z,68.27
2023-03-12T08:42:19.365Z,67.80
2023-03-12T08:44:45.895Z,67.90
2023-03-12T08:47:12.371Z,67.57
2023-03-12T08:49:38.819Z,67.17
2023-03-12T08:52:05.363Z,66.91
2023-03-12T08:54:31.903Z,65.48
2023-03-12T08:56:58.412Z,65.42
2023-03-12T08:59:25.117Z,64.96
2023-03-12T09:01:51.663Z,64.90
2023-03-12T09:04:18.760Z,64.44
2023-03-12T09:06:45.268Z,63.64
2023-03-12T09:09:11.797Z,63.18
2023-03-12T09:11:39.839Z,62.82
2023-03-12T09:16:53.706Z,61.97
2023-03-12T09:19:21.048Z,62.03
2023-03-12T09:21:50.098Z,61.15
2023-03-12T09:24:16.549Z,60.95
2023-03-12T09:26:43.054Z,59.27
2023-03-12T09:29:10.015Z,59.36
2023-03-12T09:31:36.648Z,59.23
2023-03-12T09:34:04.699Z,58.87
2023-03-12T09:36:31.784Z,58.88
2023-03-12T09:39:02.402Z,58.81
2023-03-12T09:41:32.437Z,57.39
2023-03-12T09:44:07.798Z,57.02
2023-03-12T09:46:43.204Z,55.61
2023-03-12T09:49:42.758Z,55.83
2023-03-12T09:52:24.541Z,55.89
2023-03-12T09:55:21.555Z,55.36
2023-03-12T09:57:51.225Z,54.91
2023-03-12T10:00:21.754Z,55.28
2023-03-12T10:03:12.644Z,54.66
2023-03-12T10:06:04.083Z,54.89
2023-03-12T10:08:45.510Z,54.88
2023-03-12T10:11:36.664Z,54.10
2023-03-12T10:14:26.789Z,53.62
2023-03-12T10:17:15.450Z,52.73
2023-03-12T10:19:56.950Z,53.61
2023-03-12T10:22:51.771Z,53.89
2023-03-12T10:25:31.993Z,53.42
2023-03-12T10:28:21.069Z,53.91
2023-03-12T10:30:56.158Z,53.83
2023-03-12T10:33:40.041Z,52.97
2023-03-12T10:36:15.140Z,52.63
2023-03-12T10:38:41.619Z,52.63
2023-03-12T10:41:23.248Z,52.48
2023-03-12T10:43:50.028Z,53.12
2023-03-12T10:46:38.360Z,53.61
2023-03-12T10:49:23.118Z,52.84
2023-03-12T10:52:23.145Z,53.61
2023-03-12T10:54:52.793Z,54.01
2023-03-12T10:57:21.067Z,54.30
2023-03-12T10:59:48.718Z,54.75
2023-03-12T11:02:44.394Z,54.17
2023-03-12T11:05:26.762Z,54.89
2023-03-12T11:07:53.960Z,53.79
2023-03-12T11:10:26.378Z,54.64
2023-03-12T11:12:59.525Z,54.61
2023-03-12T11:15:29.034Z,54.76
2023-03-12T11:18:25.191Z,54.19
2023-03-12T11:21:16.099Z,54.49
2023-03-12T11:24:04.712Z,54.44
2023-03-12T11:26:39.741Z,53.67
2023-03-12T11:29:27.343Z,53.68
2023-03-12T11:32:03.198Z,54.38
2023-03-12T11:34:33.829Z,55.12
2023-03-12T11:37:12.744Z,55.32
2023-03-12T11:39:46.953Z,55.18
2023-03-12T11:42:25.564Z,55.14
2023-03-12T11:45:10.037Z,54.88
2023-03-12T11:47:59.370Z,54.98
2023-03-12T11:50:47.103Z,54.54
2023-03-12T11:53:37.081Z,55.32
2023-03-12T11:56:27.510Z,55.57
2023-03-12T11:59:05.423Z,54.93
2023-03-12T12:02:04.595Z,55.63
2023-03-12T12:04:44.572Z,56.14
2023-03-12T12:07:38.415Z,56.95
2023-03-12T12:10:24.046Z,57.69
2023-03-12T12:13:01.749Z,58.00
2023-03-12T12:15:38.491Z,58.41
2023-03-12T12:18:35.858Z,58.94
2023-03-12T12:21:30.146Z,59.12
2023-03-12T12:24:35.309Z,60.04
2023-03-12T12:27:23.975Z,60.88
2023-03-12T12:30:27.422Z,62.21
2023-03-12T12:33:22.669Z,62.38
2023-03-12T12:35:50.116Z,62.75
2023-03-12T12:38:30.700Z,63.28
2023-03-12T12:41:20.718Z,63.01
2023-03-12T12:43:50.206Z,63.02
2023-03-12T12:46:20.262Z,63.19
2023-03-12T12:48:58.565Z,63.32
2023-03-12T12:51:29.961Z,63.14
2023-03-12T12:54:00.924Z,62.80
2023-03-12T12:56:43.610Z,63.76
2023-03-12T12:59:34.332Z,63.49
2023-03-12T13:02:04.885Z,63.56
2023-03-12T13:04:39.373Z,63.53
2023-03-12T13:07:11.929Z,63.85
2023-03-12T13:09:51.130Z,63.62
2023-03-12T13:12:42.700Z,63.91
2023-03-12T13:15:30.755Z,64.18
2023-03-12T13:18:22.417Z,64.06
2023-03-12T13:20:51.927Z,64.46
2023-03-12T13:23:47.729Z,64.75
2023-03-12T13:26:49.951Z,65.33
2023-03-12T13:29:19.092Z,65.71
2023-03-12T13:31:45.565Z,66.56
2023-03-12T13:34:17.824Z,66.79
2023-03-12T13:36:46.091Z,67.84
2023-03-12T13:39:15.298Z,68.51
2023-03-12T13:41:55.298Z,70.07
2023-03-12T13:44:27.633Z,70.80
2023-03-12T13:47:27.598Z,71.54
2023-03-12T13:49:58.606Z,71.38
2023-03-12T13:52:28.853Z,71.96
2023-03-12T13:55:15.873Z,71.87
2023-03-12T13:57:46.866Z,72.46
2023-03-12T14:00:26.273Z,72.53
2023-03-12T14:03:16.229Z,73.21
2023-03-12T14:05:52.424Z,73.18
2023-03-12T14:08:50.140Z,73.27
2023-03-12T14:11:57.769Z,74.01
2023-03-12T14:14:44.346Z,74.32
2023-03-12T14:17:24.191Z,74.95
2023-03-12T14:19:57.254Z,75.71
2023-03-12T14:22:25.435Z,75.83
2023-03-12T14:24:58.927Z,75.92
2023-03-12T14:27:29.498Z,76.73
2023-03-12T14:30:25.639Z,76.78
2023-03-12T14:32:56.822Z,77.29
2023-03-12T14:35:28.789Z,77.76
2023-03-12T14:38:01.177Z,78.08
2023-03-12T14:40:38.282Z,79.29
2023-03-12T14:43:27.071Z,79.62
2023-03-12T14:46:02.098Z,80.32
2023-03-12T14:48:34.156Z,80.58
2023-03-12T14:51:03.122Z,81.24
2023-03-12T14:53:33.248Z,82.48
2023-03-12T14:56:24.137Z,82.66
2023-03-12T14:58:52.012Z,83.75
2023-03-12T15:01:22.082Z,83.39
2023-03-12T15:03:59.203Z,84.10
2023-03-12T15:06:40.090Z,84.12
2023-03-12T15:09:07.961Z,84.51
2023-03-12T15:11:37.024Z,85.12
2023-03-12T15:14:08.722Z,85.67
2023-03-12T15:16:36.028Z,85.41
2023-03-12T15:19:04.136Z,86.75
2023-03-12T15:21:35.374Z,86.79
2023-03-12T15:24:32.796Z,88.12
2023-03-12T15:26:52.454Z,88.79
2023-03-12T15:29:27.889Z,90.49
2023-03-12T15:32:00.078Z,91.00
2023-03-12T15:34:34.933Z,91.44
2023-03-12T15:37:22.050Z,91.76
2023-03-12T15:39:50.963Z,92.61
2023-03-12T15:42:20.630Z,92.92
2023-03-12T15:44:56.878Z,93.66
2023-03-12T15:47:33.475Z,94.09
2023-03-12T15:50:06.650Z,94.87
2023-03-12T15:52:35.550Z,95.09
2023-03-12T15:55:14.236Z,95.50
2023-03-12T15:57:46.739Z,95.14
2023-03-12T16:00:41.852Z,95.10
2023-03-12T16:03:20.450Z,95.65
2023-03-12T16:05:50.871Z,95.21
2023-03-12T16:08:27.139Z,95.78
2023-03-12T16:10:53.872Z,96.09
2023-03-12T16:13:27.202Z,96.42
2023-03-12T16:15:54.938Z,96.82
2023-03-12T16:18:24.739Z,97.87
2023-03-12T16:20:52.821Z,98.06
2023-03-12T16:23:20.212Z,99.04
2023-03-12T16:25:51.160Z,98.91
2023-03-12T16:28:19.755Z,100.00
2023-03-12T16:30:46.585Z,100.00
2023-03-12T16:33:16.041Z,100.00
2023-03-12T16:35:42.824Z,100.00
2023-03-12T16:38:09.360Z,100.00
2023-03-12T16:40:38.302Z,100.00
2023-03-12T16:43:11.244Z,100.00
2023-03-12T16:45:41.926Z,100.00
2023-03-12T16:48:14.688Z,100.00
2023-03-12T16:50:41.252Z,100.00
2023-03-12T16:53:07.769Z,100.00
2023-03-12T16:55:45.643Z,100.00
2023-03-12T16:58:15.283Z,100.00
2023-03-12T17:00:42.389Z,100.00
2023-03-12T17:03:18.502Z,100.00
2023-03-12T17:05:45.056Z,100.00
2023-03-12T17:08:11.546Z,100.00
2023-03-12T17:10:38.054Z,100.00
2023-03-12T17:13:04.923Z,100.00
2023-03-12T17:15:33.393Z,100.00
2023-03-12T17:18:03.445Z,100.00
2023-03-12T17:20:36.079Z,100.00
2023-03-12T17:23:04.165Z,100.00
2023-03-12T17:25:33.454Z,100.00
2023-03-12T17:28:00.475Z,100.00
2023-03-12T17:30:30.224Z,100.00
2023-03-12T17:33:09.601Z,100.00
2023-03-12T17:35:36.510Z,100.00
2023-03-12T17:38:06.590Z,100.00
2023-03-12T17:40:33.848Z,100.00
2023-03-12T17:43:00.342Z,100.00
2023-03-12T17:45:27.468Z,100.00
2023-03-12T17:47:53.933Z,100.00
2023-03-12T17:50:20.490Z,100.00
2023-03-12T17:52:47.093Z,100.00
2023-03-12T17:55:13.682Z,100.00
2023-03-12T17:57:40.799Z,100.00
2023-03-12T18:00:12.567Z,100.00
2023-03-12T18:02:40.692Z,100.00
2023-03-12T18:05:08.614Z,100.00
2023-03-12T18:07:35.504Z,100.00
2023-03-12T18:10:02.086Z,100.00
2023-03-12T18:12:28.913Z,100.00
2023-03-12T18:14:55.538Z,100.00
2023-03-12T18:17:22.138Z,100.00
2023-03-12T18:19:48.946Z,100.00
2023-03-12T18:22:15.420Z,100.00
2023-03-12T18:24:42.185Z,100.00
2023-03-12T18:27:08.650Z,100.00
2023-03-12T18:29:36.861Z,100.00
2023-03-12T18:32:04.225Z,100.00
2023-03-12T18:34:30.703Z,100.00
2023-03-12T18:36:57.264Z,100.00
2023-03-12T18:39:23.853Z,100.00
2023-03-12T18:41:50.335Z,100.00
2023-03-12T18:44:17.130Z,100.00
2023-03-12T18:46:43.810Z,100.00
2023-03-12T18:49:12.432Z,100.00
2023-03-12T18:51:39.235Z,100.00
2023-03-12T18:54:05.843Z,100.00
2023-03-12T18:56:32.344Z,100.00
2023-03-12T18:58:58.902Z,100.00
2023-03-12T19:01:26.157Z,100.00
2023-03-12T19:03:52.707Z,100.00
2023-03-12T19:06:19.211Z,100.00
2023-03-12T19:08:45.850Z,100.00
2023-03-12T19:11:15.046Z,100.00
2023-03-12T19:13:42.272Z,100.00
2023-03-12T19:16:11.233Z,100.00
2023-03-12T19:18:38.753Z,100.00
2023-03-12T19:21:07.622Z,100.00
2023-03-12T19:23:34.218Z,100.00
2023-03-12T19:26:01.053Z,100.00
2023-03-12T19:28:27.614Z,100.00
2023-03-12T19:31:00.482Z,100.00
2023-03-12T19:33:28.429Z,100.00
2023-03-12T19:35:55.242Z,100.00
2023-03-12T19:38:21.789Z,100.00
2023-03-12T19:40:49.998Z,100.00
2023-03-12T19:43:17.245Z,100.00
2023-03-12T19:45:44.023Z,100.00
2023-03-12T19:48:10.899Z,100.00
2023-03-12T19:50:37.435Z,100.00
2023-03-12T19:53:04.233Z,100.00
2023-03-12T19:55:30.841Z,100.00
2023-03-12T19:57:57.354Z,100.00
2023-03-12T20:00:23.953Z,100.00
2023-03-12T20:02:50.481Z,100.00
2023-03-12T20:05:19.677Z,100.00
2023-03-12T20:07:47.085Z,100.00
2023-03-12T20:10:13.842Z,100.00
2023-03-12T20:12:40.443Z,100.00
2023-03-12T20:15:07.655Z,100.00
2023-03-12T20:17:34.125Z,100.00
2023-03-12T20:20:01.260Z,100.00
2023-03-12T20:22:27.890Z,100.00
2023-03-12T20:24:54.416Z,100.00
2023-03-12T20:27:21.068Z,100.00
2023-03-12T20:29:49.788Z,100.00
2023-03-12T20:32:17.195Z,100.00
2023-03-12T20:34:46.929Z,100.00
2023-03-12T20:37:13.416Z,100.00
2023-03-12T20:39:40.056Z,100.00
2023-03-12T20:42:06.590Z,100.00
2023-03-12T20:44:33.027Z,100.00
2023-03-12T20:46:59.514Z,100.00
2023-03-12T20:49:26.008Z,100.00
2023-03-12T20:51:52.441Z,100.00
2023-03-12T20:54:19.063Z,100.00
2023-03-12T20:56:45.658Z,100.00
2023-03-12T20:59:12.474Z,100.00
2023-03-12T21:01:39.251Z,100.00
2023-03-12T21:04:05.943Z,100.00
2023-03-12T21:06:32.594Z,100.00
2023-03-12T21:08:59.080Z,100.00
2023-03-12T21:11:28.761Z,100.00
2023-03-12T21:13:55.195Z,100.00
2023-03-12T21:16:22.399Z,100.00
2023-03-12T21:18:49.118Z,100.00
2023-03-12T21:21:15.743Z,100.00
2023-03-12T21:23:42.381Z,100.00
2023-03-12T21:26:09.741Z,100.00
2023-03-12T21:28:36.697Z,100.00
2023-03-12T21:31:12.197Z,100.00
2023-03-12T21:33:39.076Z,100.00
2023-03-12T21:36:11.559Z,100.00
2023-03-12T21:38:39.860Z,100.00
2023-03-12T21:41:15.484Z,100.00
2023-03-12T21:43:43.272Z,100.00
2023-03-12T21:46:15.513Z,100.00
2023-03-12T21:48:44.617Z,100.00
2023-03-12T21:51:13.503Z,100.00
2023-03-12T21:53:39.926Z,100.00
2023-03-12T21:56:07.899Z,100.00
2023-03-12T21:58:36.314Z,100.00
2023-03-12T22:01:11.632Z,100.00
2023-03-12T22:03:39.086Z,100.00
2023-03-12T22:06:06.283Z,100.00
2023-03-12T22:08:33.727Z,100.00
2023-03-12T22:11:00.564Z,100.00
2023-03-12T22:13:27.169Z,100.00
2023-03-12T22:15:55.812Z,100.00
2023-03-12T22:18:23.236Z,100.00
2023-03-12T22:20:51.878Z,100.00
2023-03-12T22:23:18.653Z,100.00
2023-03-12T22:25:45.882Z,100.00
2023-03-12T22:28:12.755Z,100.00
2023-03-12T22:30:39.276Z,100.00
2023-03-12T22:33:05.720Z,100.00
2023-03-12T22:35:32.205Z,100.00
2023-03-12T22:37:58.682Z,100.00
2023-03-12T22:40:25.958Z,100.00
2023-03-12T22:42:53.720Z,100.00
2023-03-12T22:45:20.235Z,100.00
2023-03-12T22:47:46.720Z,100.00
2023-03-12T22:50:13.328Z,100.00
2023-03-12T22:52:40.332Z,100.00
2023-03-12T22:55:07.253Z,100.00
2023-03-12T22:57:34.967Z,100.00
2023-03-12T23:00:01.437Z,100.00
2023-03-12T23:02:27.908Z,100.00
2023-03-12T23:04:54.394Z,100.00
2023-03-12T23:07:20.880Z,100.00
2023-03-12T23:09:47.402Z,100.00
2023-03-12T23:12:13.885Z,100.00
2023-03-12T23:14:40.297Z,100.00
2023-03-12T23:17:09.414Z,100.00
2023-03-12T23:19:36.568Z,100.00
2023-03-12T23:22:03.196Z,100.00
2023-03-12T23:24:31.367Z,100.00
2023-03-12T23:26:57.897Z,100.00
2023-03-12T23:29:24.332Z,100.00
2023-03-12T23:31:50.846Z,100.00
2023-03-12T23:34:17.353Z,100.00
2023-03-12T23:36:46.001Z,100.00
2023-03-12T23:39:13.347Z,100.00
2023-03-12T23:41:39.889Z,100.00
2023-03-12T23:44:06.434Z,100.00
2023-03-12T23:46:33.338Z,100.00
2023-03-12T23:48:59.809Z,100.00
2023-03-12T23:51:28.713Z,100.00
2023-03-12T23:54:00.917Z,100.00
2023-03-12T23:56:34.248Z,100.00
2023-03-12T23:59:00.750Z,100.00
